Time;durP1;ratioP1;P1;durP2;ratioP2;P2;SDS_P1;SDS_P2;PMS_P1;PMS_P2;Temp;Humidity;BMP_temperature;BMP_pressure;BME280_temperature;BME280_humidity;BME280_pressure;Samples;Min_cycle;Max_cycle;Signal;HPM_P1;HPM_P2
2023/09/20 00:01:08;;;;;;;15.80;7.85;;;17.00;99.90;;;;;;4869567;29;20561;-95
2023/09/20 00:03:34;;;;;;;16.30;8.03;;;16.90;99.90;;;;;;4873550;29;20440;-95
2023/09/20 00:06:06;;;;;;;15.20;7.90;;;16.80;99.90;;;;;;4866336;29;20504;-94
2023/09/20 00:11:15;;;;;;;16.10;7.88;;;16.90;99.90;;;;;;4919972;29;20445;-95
2023/09/20 00:13:41;;;;;;;17.60;7.85;;;16.70;99.90;;;;;;4882508;29;20433;-94
2023/09/20 00:16:09;;;;;;;20.88;8.00;;;17.00;99.90;;;;;;4883474;29;20421;-95
2023/09/20 00:18:38;;;;;;;17.42;9.27;;;17.20;99.90;;;;;;4881659;29;20421;-95
2023/09/20 00:21:14;;;;;;;18.73;9.70;;;16.90;99.90;;;;;;4882998;29;20470;-94
2023/09/20 00:23:40;;;;;;;20.75;9.23;;;16.80;99.90;;;;;;4881552;29;20424;-93
2023/09/20 00:26:06;;;;;;;19.42;8.32;;;17.00;99.90;;;;;;4885105;29;20425;-94
2023/09/20 00:28:31;;;;;;;21.50;9.10;;;16.90;99.90;;;;;;4883111;29;20496;-96
2023/09/20 00:30:57;;;;;;;17.95;8.40;;;16.90;99.90;;;;;;4884498;29;20472;-92
2023/09/20 00:33:35;;;;;;;16.80;8.43;;;17.10;99.90;;;;;;4885212;29;20433;-95
2023/09/20 00:36:19;;;;;;;15.70;8.07;;;16.50;99.90;;;;;;4888432;29;20799;-96
2023/09/20 00:38:45;;;;;;;20.80;8.05;;;16.90;99.90;;;;;;4887022;29;20516;-94
2023/09/20 00:41:18;;;;;;;14.20;6.73;;;16.90;99.90;;;;;;4882750;29;20453;-95
2023/09/20 00:43:45;;;;;;;15.85;6.57;;;16.90;99.90;;;;;;4898121;29;20461;-95
2023/09/20 00:46:12;;;;;;;15.70;6.68;;;17.00;99.90;;;;;;4884621;29;20425;-94
2023/09/20 00:48:55;;;;;;;18.92;7.95;;;16.70;99.90;;;;;;4881652;29;20532;-94
2023/09/20 00:51:23;;;;;;;17.20;7.22;;;16.90;99.90;;;;;;4884331;29;20983;-94
2023/09/20 00:54:03;;;;;;;17.98;7.18;;;16.90;99.90;;;;;;4882126;29;20500;-95
2023/09/20 00:56:29;;;;;;;17.35;6.80;;;17.10;99.90;;;;;;4882997;29;20494;-93
2023/09/20 00:59:06;;;;;;;15.17;6.60;;;16.90;99.90;;;;;;4882841;29;20417;-93
2023/09/20 01:01:42;;;;;;;16.27;6.60;;;17.10;99.90;;;;;;4885418;29;20849;-94
2023/09/20 01:04:14;;;;;;;16.00;7.20;;;16.70;99.90;;;;;;4879479;29;20421;-96
2023/09/20 01:06:58;;;;;;;15.57;6.30;;;17.00;99.90;;;;;;4885730;29;20464;-94
2023/09/20 01:09:26;;;;;;;13.40;5.90;;;16.70;99.90;;;;;;4878666;29;20650;-94
2023/09/20 01:11:53;;;;;;;17.25;6.85;;;17.20;99.90;;;;;;4896043;29;20599;-94
2023/09/20 01:14:22;;;;;;;13.27;6.20;;;17.10;99.90;;;;;;4874781;29;20438;-94
2023/09/20 01:16:48;;;;;;;18.50;7.90;;;17.00;99.90;;;;;;4876147;29;20465;-93
2023/09/20 01:19:17;;;;;;;18.80;7.37;;;17.10;99.90;;;;;;4872089;29;20808;-95
2023/09/20 01:21:46;;;;;;;18.15;8.35;;;17.10;99.90;;;;;;4876523;29;20431;-93
2023/09/20 01:24:13;;;;;;;16.27;7.18;;;17.00;99.90;;;;;;4871420;29;20839;-94
2023/09/20 01:26:39;;;;;;;17.38;7.60;;;17.20;99.90;;;;;;4875355;29;21110;-95
2023/09/20 01:29:07;;;;;;;17.52;7.35;;;17.30;99.90;;;;;;4869331;29;20442;-95
2023/09/20 01:31:37;;;;;;;18.25;7.30;;;17.30;99.90;;;;;;4875012;29;20414;-94
2023/09/20 01:34:02;;;;;;;16.00;7.50;;;17.20;99.90;;;;;;4858787;29;20416;-93
2023/09/20 01:36:28;;;;;;;19.97;7.07;;;17.00;99.90;;;;;;4857876;29;20441;-95
2023/09/20 01:39:00;;;;;;;16.45;6.38;;;17.00;99.90;;;;;;4864342;29;20924;-94
2023/09/20 01:41:25;;;;;;;14.45;5.85;;;17.00;99.90;;;;;;4872162;29;20823;-94
2023/09/20 01:43:56;;;;;;;15.07;6.10;;;17.00;99.90;;;;;;4877532;29;20438;-95
2023/09/20 01:46:25;;;;;;;14.63;6.25;;;17.20;99.90;;;;;;4870801;29;20522;-93
2023/09/20 01:48:51;;;;;;;15.25;5.50;;;17.30;99.90;;;;;;4875852;29;20473;-93
2023/09/20 01:51:19;;;;;;;14.60;5.63;;;17.00;99.90;;;;;;4871375;29;20427;-94
2023/09/20 01:53:51;;;;;;;16.02;5.30;;;17.20;99.90;;;;;;4876971;29;20426;-96
2023/09/20 01:56:26;;;;;;;14.27;5.38;;;17.30;99.90;;;;;;4873073;29;20490;-94
2023/09/20 01:58:51;;;;;;;15.00;5.85;;;17.40;99.90;;;;;;4876268;29;20419;-95
2023/09/20 02:01:17;;;;;;;14.97;5.23;;;17.30;99.90;;;;;;4870795;29;21167;-94
2023/09/20 02:03:43;;;;;;;15.98;5.03;;;17.10;99.90;;;;;;4877329;29;20414;-92
2023/09/20 02:06:10;;;;;;;17.58;4.45;;;17.20;99.90;;;;;;4874847;29;20822;-95
2023/09/20 02:08:36;;;;;;;16.40;4.73;;;17.30;99.90;;;;;;4876538;29;20486;-93
2023/09/20 02:11:03;;;;;;;13.95;4.97;;;17.10;99.90;;;;;;4861118;29;20447;-94
2023/09/20 02:13:37;;;;;;;15.23;4.40;;;17.20;99.90;;;;;;4861156;29;20508;-95
2023/09/20 02:16:03;;;;;;;13.65;4.75;;;17.20;99.90;;;;;;4866165;29;20419;-93
2023/09/20 02:18:29;;;;;;;13.20;4.40;;;17.20;99.90;;;;;;4863351;29;20933;-92
2023/09/20 02:20:57;;;;;;;13.07;4.90;;;17.40;99.90;;;;;;4861960;29;20416;-92
2023/09/20 02:23:23;;;;;;;12.77;4.38;;;17.20;99.90;;;;;;4869255;29;20412;-95
2023/09/20 02:26:01;;;;;;;12.05;4.13;;;17.50;99.90;;;;;;4881561;29;20411;-95
2023/09/20 02:28:34;;;;;;;12.57;4.57;;;17.40;99.90;;;;;;4879551;29;20840;-95
2023/09/20 02:31:28;;;;;;;15.00;5.80;;;17.20;99.90;;;;;;4889804;29;20462;-94
2023/09/20 02:34:04;;;;;;;15.35;4.72;;;17.20;99.90;;;;;;4800947;29;20434;-95
2023/09/20 02:36:33;;;;;;;13.50;4.97;;;17.30;99.90;;;;;;4883814;29;20407;-94
2023/09/20 02:39:29;;;;;;;10.68;4.32;;;17.40;99.90;;;;;;4879152;29;20435;-96
2023/09/20 02:42:18;;;;;;;14.63;5.35;;;17.30;99.90;;;;;;4861723;29;20463;-94
2023/09/20 02:45:12;;;;;;;12.73;4.75;;;17.20;99.90;;;;;;4877000;29;20447;-93
2023/09/20 02:48:01;;;;;;;14.75;5.13;;;17.30;99.90;;;;;;4792132;29;21047;-94
2023/09/20 02:50:30;;;;;;;9.25;4.53;;;17.40;99.90;;;;;;4858352;29;20423;-94
2023/09/20 02:52:56;;;;;;;12.07;4.93;;;17.40;99.90;;;;;;4879001;29;20411;-94
2023/09/20 02:55:27;;;;;;;11.20;4.38;;;17.40;99.90;;;;;;4876573;29;20461;-95
2023/09/20 02:58:02;;;;;;;12.52;4.45;;;17.30;99.90;;;;;;4885401;29;20482;-95
2023/09/20 03:03:15;;;;;;;12.90;4.68;;;17.30;99.90;;;;;;4966187;23;20924;-95
2023/09/20 03:06:09;;;;;;;11.98;3.83;;;17.40;99.90;;;;;;4890393;29;20452;-94
2023/09/20 03:08:44;;;;;;;11.30;3.42;;;17.30;99.90;;;;;;4887171;29;20875;-95
2023/09/20 03:11:27;;;;;;;11.48;3.88;;;17.30;99.90;;;;;;4901093;29;20457;-95
2023/09/20 03:14:13;;;;;;;11.25;3.95;;;17.30;99.90;;;;;;4889174;29;21135;-94
2023/09/20 03:16:49;;;;;;;9.85;3.42;;;17.30;99.90;;;;;;4884709;29;20429;-95
2023/09/20 03:19:15;;;;;;;9.50;3.80;;;17.60;99.90;;;;;;4886120;29;20444;-93
2023/09/20 03:21:45;;;;;;;9.82;3.80;;;17.30;99.90;;;;;;4882037;29;20413;-94
2023/09/20 03:24:17;;;;;;;8.43;3.60;;;17.60;99.90;;;;;;4884987;29;20421;-94
2023/09/20 03:26:52;;;;;;;12.25;3.53;;;17.40;99.90;;;;;;4882715;29;20983;-94
2023/09/20 03:29:29;;;;;;;9.40;3.37;;;17.30;99.90;;;;;;4891368;29;20461;-96
2023/09/20 03:32:04;;;;;;;9.85;3.40;;;17.60;99.90;;;;;;4892845;29;20422;-94
2023/09/20 03:34:35;;;;;;;8.30;3.23;;;17.60;99.90;;;;;;4888043;29;20421;-96
2023/09/20 03:37:09;;;;;;;8.85;3.30;;;17.30;99.90;;;;;;5001159;23;20484;-95
2023/09/20 03:39:43;;;;;;;10.03;3.80;;;17.30;99.90;;;;;;4885847;29;20425;-94
2023/09/20 03:42:32;;;;;;;9.23;3.75;;;17.20;99.90;;;;;;4893288;29;20428;-95
2023/09/20 03:44:58;;;;;;;9.77;3.65;;;17.30;99.90;;;;;;4887412;29;20425;-94
2023/09/20 03:48:11;;;;;;;13.47;4.03;;;17.30;99.90;;;;;;4890023;29;20476;-94
2023/09/20 03:51:13;;;;;;;10.18;3.50;;;17.00;99.90;;;;;;4895147;29;20433;-96
2023/09/20 03:54:33;;;;;;;11.68;4.07;;;17.40;99.90;;;;;;4801242;29;20442;-95
2023/09/20 04:42:21;;;;;;;10.98;4.03;;;17.10;99.90;;;;;;5040224;23;20430;-95
2023/09/20 05:48:26;;;;;;;11.32;3.63;;;16.80;99.90;;;;;;4898021;29;20462;-92
2023/09/20 05:51:02;;;;;;;11.70;3.90;;;16.80;99.90;;;;;;4886606;29;20434;-94
2023/09/20 05:53:54;;;;;;;10.18;3.67;;;16.90;99.90;;;;;;5064394;23;20440;-95
2023/09/20 06:41:51;;;;;;;8.52;2.67;;;17.00;99.90;;;;;;6249717;22;20433;-96
2023/09/20 06:47:35;;;;;;;10.70;3.22;;;17.00;99.90;;;;;;6242581;22;20383;-96
2023/09/20 07:22:31;;;;;;;6.22;2.40;;;17.30;99.90;;;;;;6259803;22;21178;-94
2023/09/20 07:29:44;;;;;;;7.57;2.33;;;17.40;99.90;;;;;;6119858;23;20386;-95
2023/09/20 07:32:27;;;;;;;6.28;2.20;;;17.40;99.90;;;;;;6194819;23;20456;-95
2023/09/20 07:37:31;;;;;;;7.95;2.40;;;17.60;99.90;;;;;;6239896;22;20402;-96
2023/09/20 07:40:26;;;;;;;9.57;2.63;;;17.60;99.90;;;;;;6211388;23;20434;-96
2023/09/20 07:43:43;;;;;;;;;;;;;;;;;;;;;
2023/09/20 07:46:44;;;;;;;7.78;2.50;;;17.80;99.90;;;;;;6243075;22;20401;-95
2023/09/20 07:49:10;;;;;;;6.73;2.70;;;18.10;99.90;;;;;;6167343;23;20441;-95
2023/09/20 07:54:45;;;;;;;6.47;3.13;;;17.90;99.90;;;;;;6209514;22;20395;-94
2023/09/20 07:57:33;;;;;;;8.02;2.90;;;17.90;99.90;;;;;;6191975;23;20407;-94
2023/09/20 08:05:37;;;;;;;7.55;2.40;;;18.10;99.90;;;;;;6223848;22;20384;-95
2023/09/20 08:08:22;;;;;;;6.60;2.40;;;18.20;99.90;;;;;;6160248;22;20393;-95
2023/09/20 09:06:22;;;;;;;7.25;2.88;;;18.50;99.90;;;;;;6150306;23;20423;-96
2023/09/20 09:14:28;;;;;;;7.03;2.83;;;18.30;99.90;;;;;;6189533;23;20442;-94
2023/09/20 09:21:14;;;;;;;6.53;2.85;;;18.40;99.90;;;;;;6238327;23;20427;-95
2023/09/20 09:24:29;;;;;;;6.03;3.37;;;18.40;99.90;;;;;;6230557;23;20378;-95
2023/09/20 09:27:21;;;;;;;5.90;3.05;;;18.40;99.90;;;;;;6238517;23;20377;-94
2023/09/20 09:38:52;;;;;;;;;;;;;;;;;;;;;
2023/09/20 09:41:43;;;;;;;6.38;3.67;;;18.70;99.90;;;;;;6107849;23;20470;-96
2023/09/20 09:44:38;;;;;;;;;;;;;;;;;;;;;
2023/09/20 09:48:06;;;;;;;7.72;3.58;;;18.90;99.90;;;;;;6145421;23;20424;-95
2023/09/20 09:57:32;;;;;;;7.65;3.70;;;18.80;99.90;;;;;;6170069;23;20390;-95
2023/09/20 10:00:30;;;;;;;6.85;3.63;;;18.90;99.90;;;;;;6142465;23;20393;-96
2023/09/20 10:06:21;;;;;;;5.88;4.10;;;19.30;99.90;;;;;;6155702;23;20381;-94
2023/09/20 10:09:13;;;;;;;7.47;4.30;;;19.00;99.90;;;;;;6142960;23;20369;-96
2023/09/20 10:12:38;;;;;;;7.38;3.88;;;18.90;99.90;;;;;;6028979;23;20387;-96
2023/09/20 10:15:24;;;;;;;6.78;4.50;;;19.00;99.90;;;;;;6048149;23;20376;-96
2023/09/20 10:17:55;;;;;;;6.25;4.20;;;19.20;99.90;;;;;;6044306;23;20761;-94
2023/09/20 10:20:32;;;;;;;6.35;4.22;;;19.10;99.90;;;;;;6041639;23;20449;-95
2023/09/20 10:34:40;;;;;;;6.05;4.82;;;18.90;99.90;;;;;;6182773;23;20405;-95
2023/09/20 10:37:10;;;;;;;6.38;4.40;;;19.10;99.90;;;;;;6151929;23;20388;-95
2023/09/20 10:40:12;;;;;;;6.80;4.43;;;19.00;99.90;;;;;;6133367;23;20448;-94
2023/09/20 10:43:00;;;;;;;5.55;4.30;;;18.80;99.90;;;;;;6131806;23;20378;-94
2023/09/20 10:45:39;;;;;;;6.75;4.65;;;18.80;99.90;;;;;;6142141;22;21378;-95
2023/09/20 10:49:06;;;;;;;6.53;4.25;;;18.80;99.90;;;;;;6168176;23;20376;-94
2023/09/20 10:51:57;;;;;;;6.90;4.60;;;18.70;99.90;;;;;;6163471;23;20471;-94
2023/09/20 10:54:29;;;;;;;7.40;4.85;;;18.70;99.90;;;;;;6160463;23;20376;-96
2023/09/20 11:00:00;;;;;;;7.43;4.77;;;19.10;99.90;;;;;;6128801;23;20407;-93
2023/09/20 11:03:26;;;;;;;;;;;;;;;;;;;;;
2023/09/20 11:05:55;;;;;;;7.60;4.50;;;18.80;99.90;;;;;;6185900;23;20383;-94
2023/09/20 11:08:28;;;;;;;5.70;4.30;;;18.80;99.90;;;;;;6185069;23;20411;-96
2023/09/20 11:11:45;;;;;;;6.28;4.25;;;18.90;99.90;;;;;;6194882;23;20372;-94
2023/09/20 11:14:26;;;;;;;7.07;5.10;;;18.90;99.90;;;;;;6167179;23;20466;-96
2023/09/20 11:16:52;;;;;;;6.55;5.68;;;18.80;99.90;;;;;;6160957;23;20517;-94
2023/09/20 11:19:49;;;;;;;8.27;5.22;;;18.80;99.90;;;;;;6162726;23;20367;-94
2023/09/20 11:22:56;;;;;;;7.05;5.78;;;18.80;99.90;;;;;;6103491;23;20709;-96
2023/09/20 11:25:31;;;;;;;6.32;5.25;;;18.90;99.90;;;;;;6167682;23;20708;-95
2023/09/20 11:28:34;;;;;;;8.35;6.63;;;19.40;99.90;;;;;;6157918;23;20467;-95
2023/09/20 11:31:23;;;;;;;6.57;5.88;;;19.40;99.90;;;;;;6160172;23;20430;-94
2023/09/20 11:34:20;;;;;;;6.85;5.50;;;18.90;99.90;;;;;;6165678;23;20364;-95
2023/09/20 11:36:53;;;;;;;7.65;5.82;;;19.10;99.90;;;;;;6166242;23;20696;-94
2023/09/20 11:39:28;;;;;;;6.72;5.72;;;18.80;99.90;;;;;;6160831;23;20368;-95
2023/09/20 11:45:19;;;;;;;7.15;6.30;;;19.10;99.90;;;;;;6134574;23;20429;-95
2023/09/20 11:47:46;;;;;;;6.88;5.82;;;19.40;99.90;;;;;;6108613;23;20390;-95
2023/09/20 11:50:26;;;;;;;7.10;5.75;;;19.70;99.90;;;;;;6103901;23;20910;-95
2023/09/20 11:53:05;;;;;;;6.35;5.85;;;19.20;99.90;;;;;;6102082;23;20414;-95
2023/09/20 11:55:30;;;;;;;8.30;6.13;;;19.60;99.90;;;;;;6106207;23;20599;-91
2023/09/20 11:58:01;;;;;;;6.95;6.25;;;19.10;99.90;;;;;;6158695;23;20411;-94
2023/09/20 12:00:30;;;;;;;7.30;6.57;;;19.20;99.90;;;;;;6187201;23;20406;-96
2023/09/20 12:03:28;;;;;;;7.78;5.75;;;19.40;99.90;;;;;;6165794;23;20380;-95
2023/09/20 12:06:03;;;;;;;8.20;5.45;;;19.40;99.90;;;;;;6165825;23;20383;-96
2023/09/20 12:09:17;;;;;;;6.38;5.65;;;19.40;99.90;;;;;;6162597;23;20383;-95
2023/09/20 12:12:27;;;;;;;6.93;5.55;;;19.50;99.90;;;;;;6211031;23;20415;-94
2023/09/20 12:14:53;;;;;;;6.40;4.87;;;19.20;99.90;;;;;;6134106;23;20375;-94
2023/09/20 12:17:21;;;;;;;6.05;4.88;;;19.30;99.90;;;;;;6162341;23;20423;-94
2023/09/20 12:20:12;;;;;;;5.78;4.70;;;19.30;99.90;;;;;;6164914;23;20469;-95
2023/09/20 12:23:14;;;;;;;5.88;4.53;;;19.40;99.90;;;;;;6194103;23;20395;-94
2023/09/20 12:26:24;;;;;;;5.60;3.90;;;19.20;99.90;;;;;;6175135;23;20368;-94
2023/09/20 12:28:50;;;;;;;5.18;3.60;;;19.30;99.90;;;;;;6088108;23;20396;-94
2023/09/20 12:31:23;;;;;;;4.70;3.17;;;19.30;99.90;;;;;;6076916;23;20471;-96
2023/09/20 12:33:55;;;;;;;5.88;3.53;;;19.10;99.90;;;;;;6101698;23;20899;-95
2023/09/20 12:36:27;;;;;;;4.60;3.17;;;19.20;99.90;;;;;;6095986;23;20388;-94
2023/09/20 12:38:55;;;;;;;6.30;3.35;;;19.40;99.90;;;;;;6069438;23;20865;-94
2023/09/20 12:41:27;;;;;;;4.43;3.00;;;19.40;99.90;;;;;;6068602;23;20401;-94
2023/09/20 12:44:14;;;;;;;5.82;3.90;;;19.40;99.90;;;;;;6072893;23;20443;-96
2023/09/20 12:46:40;;;;;;;7.18;3.83;;;19.40;99.90;;;;;;6070040;23;20392;-95
2023/09/20 12:49:06;;;;;;;5.97;3.80;;;19.50;99.90;;;;;;6072648;23;20381;-94
2023/09/20 12:51:40;;;;;;;7.30;4.50;;;19.70;99.90;;;;;;6069206;23;20380;-95
2023/09/20 12:54:06;;;;;;;5.20;4.32;;;19.70;99.90;;;;;;6074133;23;20869;-93
2023/09/20 12:57:07;;;;;;;5.03;4.07;;;19.40;99.90;;;;;;6069803;23;20376;-94
2023/09/20 12:59:36;;;;;;;6.38;4.45;;;19.50;99.90;;;;;;6115806;23;20380;-96
2023/09/20 13:03:06;;;;;;;6.07;4.85;;;19.60;99.90;;;;;;6177600;23;20860;-96
2023/09/20 13:05:36;;;;;;;6.32;5.00;;;19.80;99.90;;;;;;6194904;23;20401;-95
2023/09/20 13:08:29;;;;;;;7.70;4.88;;;19.60;99.90;;;;;;6192002;23;20696;-95
2023/09/20 13:10:55;;;;;;;6.20;4.55;;;19.60;99.90;;;;;;6192968;23;20854;-93
2023/09/20 13:13:38;;;;;;;5.73;3.87;;;19.90;99.90;;;;;;6194202;23;20385;-95
2023/09/20 13:16:41;;;;;;;6.47;4.00;;;20.30;99.90;;;;;;6153774;23;20377;-94
2023/09/20 13:19:10;;;;;;;6.55;3.60;;;20.50;99.90;;;;;;6147160;23;20382;-95
2023/09/20 13:21:41;;;;;;;6.72;3.85;;;20.20;99.90;;;;;;6129348;23;20457;-95
2023/09/20 13:24:09;;;;;;;5.07;3.38;;;20.50;99.90;;;;;;6136139;23;20389;-96
2023/09/20 13:26:53;;;;;;;6.18;3.20;;;20.50;99.90;;;;;;6133364;23;20416;-95
2023/09/20 13:29:18;;;;;;;6.38;3.25;;;20.90;99.90;;;;;;6126784;23;20424;-93
2023/09/20 13:31:45;;;;;;;5.50;3.13;;;20.70;99.90;;;;;;6132927;23;20401;-93
2023/09/20 13:35:02;;;;;;;4.97;2.80;;;20.70;99.90;;;;;;6129273;23;20476;-96
2023/09/20 13:37:50;;;;;;;;;;;;;;;;;;;;;
2023/09/20 13:40:51;;;;;;;3.85;2.22;;;20.80;99.90;;;;;;6160417;23;20428;-95
2023/09/20 13:43:32;;;;;;;5.60;2.45;;;20.80;99.90;;;;;;6100584;23;20409;-96
2023/09/20 13:50:34;;;;;;;4.53;2.45;;;21.00;99.90;;;;;;6187336;22;20398;-94
2023/09/20 13:53:10;;;;;;;;;;;;;;;;;;;;;
2023/09/20 13:56:05;;;;;;;4.27;2.20;;;20.90;99.90;;;;;;6096554;23;20853;-94
2023/09/20 13:58:35;;;;;;;6.40;2.72;;;21.10;99.90;;;;;;6213104;23;20366;-96
2023/09/20 14:01:22;;;;;;;3.28;2.08;;;21.40;99.90;;;;;;6204412;23;20377;-95
2023/09/20 14:04:55;;;;;;;4.63;2.20;;;21.30;99.90;;;;;;6196648;23;20904;-96
2023/09/20 14:07:24;;;;;;;5.25;1.92;;;21.50;99.90;;;;;;6107306;23;20383;-95
2023/09/20 14:09:56;;;;;;;5.70;2.57;;;21.60;99.90;;;;;;6108066;23;20385;-96
2023/09/20 14:12:22;;;;;;;3.85;2.20;;;21.60;99.90;;;;;;6155731;23;20374;-94
2023/09/20 14:15:04;;;;;;;3.38;2.10;;;21.60;99.90;;;;;;6198166;23;20436;-94
2023/09/20 14:18:02;;;;;;;;;;;;;;;;;;;;;
2023/09/20 14:21:15;;;;;;;6.15;2.45;;;21.40;99.90;;;;;;6188727;23;20403;-95
2023/09/20 14:23:59;;;;;;;5.43;2.00;;;21.40;99.90;;;;;;6174397;23;20358;-94
2023/09/20 14:26:52;;;;;;;5.17;2.23;;;21.70;99.90;;;;;;6198702;23;20370;-96
2023/09/20 14:29:28;;;;;;;4.88;2.28;;;21.60;99.90;;;;;;6195556;23;20396;-94
2023/09/20 14:34:43;;;;;;;4.75;2.60;;;21.30;99.90;;;;;;6190751;22;20395;-95
2023/09/20 14:41:09;;;;;;;4.95;2.20;;;21.40;99.90;;;;;;6209532;22;20466;-93
2023/09/20 14:43:46;;;;;;;5.80;2.30;;;21.40;99.90;;;;;;6170925;23;20379;-96
2023/09/20 14:47:00;;;;;;;5.63;2.70;;;22.00;99.90;;;;;;6165633;23;20369;-95
2023/09/20 14:49:26;;;;;;;5.03;2.42;;;21.40;99.90;;;;;;6116518;23;20409;-94
2023/09/20 14:51:55;;;;;;;3.08;2.20;;;21.30;99.90;;;;;;6106839;23;20377;-96
2023/09/20 14:54:38;;;;;;;5.95;2.47;;;21.20;99.90;;;;;;6158306;23;20397;-94
2023/09/20 14:57:04;;;;;;;4.97;2.40;;;21.50;99.90;;;;;;6157263;23;20828;-92
2023/09/20 14:59:33;;;;;;;5.72;2.70;;;21.50;99.90;;;;;;6160318;23;20379;-94
2023/09/20 15:01:58;;;;;;;7.18;2.67;;;21.20;99.90;;;;;;6156718;23;21011;-92
2023/09/20 15:04:24;;;;;;;4.82;2.60;;;21.20;99.90;;;;;;6159925;23;20437;-91
2023/09/20 15:06:51;;;;;;;6.60;2.45;;;21.20;99.90;;;;;;6157418;23;20856;-91
2023/09/20 15:09:17;;;;;;;4.80;2.50;;;21.20;99.90;;;;;;6188843;23;20377;-91
2023/09/20 15:11:44;;;;;;;6.37;2.63;;;21.30;99.90;;;;;;6188738;23;20370;-91
2023/09/20 15:14:10;;;;;;;4.90;2.50;;;21.30;99.90;;;;;;6187152;23;20443;-92
2023/09/20 15:16:37;;;;;;;6.30;2.83;;;21.30;99.90;;;;;;6189541;23;20430;-92
2023/09/20 15:19:03;;;;;;;5.00;2.35;;;21.40;99.90;;;;;;6186340;23;20582;-94
2023/09/20 15:21:29;;;;;;;4.63;2.53;;;21.30;99.90;;;;;;6189196;23;20393;-91
2023/09/20 15:23:56;;;;;;;5.07;2.47;;;21.30;99.90;;;;;;6186989;23;20366;-93
2023/09/20 15:26:24;;;;;;;6.07;2.67;;;21.30;99.90;;;;;;6189170;23;20782;-91
2023/09/20 15:28:50;;;;;;;4.70;2.33;;;21.20;99.90;;;;;;6187971;23;20508;-93
2023/09/20 15:31:19;;;;;;;4.53;2.40;;;21.20;99.90;;;;;;6188413;23;20878;-93
2023/09/20 15:33:46;;;;;;;6.25;2.70;;;21.20;99.90;;;;;;6188944;23;20384;-91
2023/09/20 15:36:15;;;;;;;5.20;2.58;;;21.10;99.90;;;;;;6186601;23;20369;-90
2023/09/20 15:38:41;;;;;;;4.78;2.25;;;21.20;99.90;;;;;;6188890;23;20371;-93
2023/09/20 15:41:08;;;;;;;4.45;2.45;;;21.10;99.90;;;;;;6186192;23;20468;-91
2023/09/20 15:43:37;;;;;;;5.10;2.33;;;21.00;99.90;;;;;;6189221;23;20400;-93
2023/09/20 15:46:04;;;;;;;4.80;2.63;;;21.00;99.90;;;;;;6186339;23;20568;-90
2023/09/20 15:48:31;;;;;;;6.50;2.47;;;20.90;99.90;;;;;;6188315;23;20378;-92
2023/09/20 15:50:59;;;;;;;5.22;2.50;;;21.20;99.90;;;;;;6187983;23;20424;-92
2023/09/20 15:53:26;;;;;;;3.92;2.50;;;21.00;99.90;;;;;;6186944;23;20911;-91
2023/09/20 15:55:52;;;;;;;4.15;2.42;;;21.00;99.90;;;;;;6189136;23;20934;-92
2023/09/20 15:58:17;;;;;;;6.27;2.77;;;21.20;99.90;;;;;;6185979;23;20992;-91
2023/09/20 16:00:44;;;;;;;6.45;2.55;;;21.10;99.90;;;;;;6189032;23;20436;-91
2023/09/20 16:03:16;;;;;;;4.82;2.55;;;21.00;99.90;;;;;;6186236;23;20405;-93
2023/09/20 16:05:43;;;;;;;4.47;2.38;;;21.00;99.90;;;;;;6188880;23;20981;-91
2023/09/20 16:08:11;;;;;;;5.88;2.33;;;20.80;99.90;;;;;;6187184;23;20366;-91
2023/09/20 16:10:36;;;;;;;4.65;2.35;;;20.70;99.90;;;;;;6187437;23;20378;-92
2023/09/20 16:13:02;;;;;;;4.67;2.40;;;20.70;99.90;;;;;;6188235;23;20370;-93
2023/09/20 16:15:28;;;;;;;5.47;2.50;;;20.60;99.90;;;;;;6186008;23;20370;-93
2023/09/20 16:17:54;;;;;;;3.63;2.37;;;20.60;99.90;;;;;;6188501;23;20369;-91
2023/09/20 16:20:23;;;;;;;5.53;2.72;;;20.50;99.90;;;;;;6186407;23;20398;-95
2023/09/20 16:22:48;;;;;;;4.93;2.78;;;20.50;99.90;;;;;;6189290;23;20378;-92
2023/09/20 16:25:17;;;;;;;4.40;2.60;;;20.70;99.90;;;;;;6186198;23;20373;-94
2023/09/20 16:27:45;;;;;;;5.72;2.65;;;20.60;99.90;;;;;;6189422;23;20366;-93
2023/09/20 16:30:15;;;;;;;5.78;2.50;;;20.70;99.90;;;;;;6187218;23;20882;-93
2023/09/20 16:32:41;;;;;;;4.45;2.10;;;20.40;99.90;;;;;;6188332;23;20627;-93
2023/09/20 16:35:09;;;;;;;4.40;2.33;;;20.30;99.90;;;;;;6188779;23;20432;-93
2023/09/20 16:37:36;;;;;;;5.53;2.40;;;20.40;99.90;;;;;;6185586;23;20363;-92
2023/09/20 16:40:01;;;;;;;4.05;2.25;;;20.30;99.90;;;;;;6188894;23;20397;-92
2023/09/20 16:42:28;;;;;;;3.97;1.97;;;20.30;99.90;;;;;;6186148;23;20440;-91
2023/09/20 16:44:53;;;;;;;5.88;2.00;;;20.50;99.90;;;;;;6188047;23;20384;-93
2023/09/20 16:47:19;;;;;;;4.32;1.80;;;20.50;99.90;;;;;;6185939;23;20809;-93
2023/09/20 16:49:45;;;;;;;4.20;1.65;;;20.30;99.90;;;;;;6188900;23;20870;-92
2023/09/20 16:52:13;;;;;;;5.43;1.70;;;20.40;99.90;;;;;;6187319;23;20365;-91
2023/09/20 16:54:41;;;;;;;4.63;1.40;;;20.20;99.90;;;;;;6211598;23;20711;-92
2023/09/20 16:57:07;;;;;;;5.10;1.75;;;20.60;99.90;;;;;;6188463;23;20472;-94
2023/09/20 16:59:36;;;;;;;3.45;1.15;;;20.20;99.90;;;;;;6185888;23;20390;-93
2023/09/20 17:02:01;;;;;;;3.13;1.30;;;20.20;99.90;;;;;;6188925;23;20882;-92
2023/09/20 17:04:32;;;;;;;4.18;1.30;;;20.10;99.90;;;;;;6185926;23;20736;-91
2023/09/20 17:06:58;;;;;;;4.70;1.42;;;20.10;99.90;;;;;;6188181;23;20362;-93
2023/09/20 17:09:23;;;;;;;4.47;1.30;;;20.10;99.90;;;;;;6188076;23;20382;-91
2023/09/20 17:11:50;;;;;;;4.10;1.50;;;20.10;99.90;;;;;;6188105;23;20485;-92
2023/09/20 17:14:16;;;;;;;3.55;0.95;;;20.10;99.90;;;;;;6187539;23;20362;-91
2023/09/20 17:16:42;;;;;;;3.95;1.30;;;20.00;99.90;;;;;;6189550;23;20452;-90
2023/09/20 17:19:10;;;;;;;3.38;1.15;;;20.10;99.90;;;;;;6189122;23;20488;-92
2023/09/20 17:21:41;;;;;;;3.13;1.20;;;20.00;99.90;;;;;;6186322;23;20473;-93
2023/09/20 17:24:09;;;;;;;5.00;1.40;;;20.00;99.90;;;;;;6189131;23;20374;-94
2023/09/20 17:26:35;;;;;;;4.32;1.08;;;19.90;99.90;;;;;;6185835;23;20679;-94
2023/09/20 17:29:00;;;;;;;3.45;1.00;;;19.90;99.90;;;;;;6188599;23;20362;-93
2023/09/20 17:31:29;;;;;;;3.17;1.20;;;19.90;99.90;;;;;;6185354;23;20362;-93
2023/09/20 17:33:55;;;;;;;5.32;1.13;;;19.80;99.90;;;;;;6188999;23;20362;-93
2023/09/20 17:36:22;;;;;;;3.42;1.00;;;20.20;99.90;;;;;;6187201;23;20785;-93
2023/09/20 17:38:48;;;;;;;3.97;1.10;;;19.80;99.90;;;;;;6186938;23;20765;-93
2023/09/20 17:41:17;;;;;;;4.18;0.93;;;19.80;99.90;;;;;;6188694;23;20394;-91
2023/09/20 17:43:43;;;;;;;3.78;0.90;;;20.40;99.90;;;;;;6185610;23;20362;-93
2023/09/20 17:46:09;;;;;;;3.40;1.00;;;19.80;99.90;;;;;;6188409;23;20366;-92
2023/09/20 17:48:39;;;;;;;3.97;1.00;;;19.70;99.90;;;;;;6184771;23;20398;-95
2023/09/20 17:51:08;;;;;;;5.20;1.08;;;19.50;99.90;;;;;;6188004;23;20412;-94
2023/09/20 17:53:34;;;;;;;2.85;0.93;;;19.70;99.90;;;;;;6186922;23;20385;-93
2023/09/20 17:56:03;;;;;;;2.67;0.60;;;19.60;99.90;;;;;;6187893;23;21054;-95
2023/09/20 17:58:34;;;;;;;3.03;0.60;;;19.60;99.90;;;;;;6187533;23;20366;-94
2023/09/20 18:01:06;;;;;;;4.30;0.80;;;19.60;99.90;;;;;;6186707;23;20389;-93
2023/09/20 18:03:34;;;;;;;3.35;0.82;;;19.50;99.90;;;;;;6189369;23;20687;-94
2023/09/20 18:06:02;;;;;;;3.87;0.80;;;19.60;99.90;;;;;;6186302;23;20374;-91
2023/09/20 18:08:28;;;;;;;3.22;0.77;;;19.80;99.90;;;;;;6187628;23;20370;-93
2023/09/20 18:10:55;;;;;;;2.25;0.70;;;19.50;99.90;;;;;;6185302;23;20381;-91
2023/09/20 18:13:25;;;;;;;3.63;0.93;;;19.50;99.90;;;;;;6187366;23;20386;-91
2023/09/20 18:15:52;;;;;;;3.13;0.80;;;19.60;99.90;;;;;;6187435;23;20381;-93
2023/09/20 18:18:21;;;;;;;3.17;0.82;;;19.50;99.90;;;;;;6185659;23;20685;-94
2023/09/20 18:20:54;;;;;;;2.45;0.60;;;19.40;99.90;;;;;;6187713;23;20393;-92
2023/09/20 18:23:21;;;;;;;3.17;0.52;;;19.40;99.90;;;;;;6184019;23;20370;-94
2023/09/20 18:25:48;;;;;;;3.10;0.70;;;19.40;99.90;;;;;;6187276;23;20366;-91
2023/09/20 18:28:14;;;;;;;3.58;0.75;;;19.30;99.90;;;;;;6184752;23;20369;-91
2023/09/20 18:30:41;;;;;;;4.30;0.73;;;19.70;99.90;;;;;;6186752;23;20854;-91
2023/09/20 18:33:07;;;;;;;2.90;0.60;;;19.20;99.90;;;;;;6186334;23;20366;-94
2023/09/20 18:35:36;;;;;;;2.67;0.70;;;19.30;99.90;;;;;;6185910;23;20468;-92
2023/09/20 18:38:02;;;;;;;3.13;0.70;;;19.30;99.90;;;;;;6186959;23;20378;-92
2023/09/20 18:40:28;;;;;;;3.60;0.70;;;19.20;99.90;;;;;;6185576;23;20956;-94
2023/09/20 18:42:56;;;;;;;2.85;0.80;;;19.20;99.90;;;;;;6187499;23;20362;-92
2023/09/20 18:45:22;;;;;;;2.88;0.50;;;19.10;99.90;;;;;;6185578;23;20921;-92
2023/09/20 18:47:48;;;;;;;3.37;0.70;;;19.10;99.90;;;;;;6188451;23;20366;-93
2023/09/20 18:50:17;;;;;;;2.33;0.60;;;19.30;99.90;;;;;;6185905;23;20391;-93
2023/09/20 18:52:45;;;;;;;2.53;0.53;;;19.10;99.90;;;;;;6186338;23;20377;-91
2023/09/20 18:55:15;;;;;;;3.38;0.80;;;18.80;99.90;;;;;;6186533;23;20798;-93
2023/09/20 18:57:51;;;;;;;3.15;0.70;;;18.90;99.90;;;;;;6186084;23;20377;-92
2023/09/20 19:00:22;;;;;;;2.92;0.70;;;18.80;99.90;;;;;;6188316;23;20424;-93